This is the latest recevied weather packets stored in our database for station/object DG4MJS-10. If no packets are shown the sender has not sent any weather packets the latest 10 day(s).
| Time | Temp. | Humidity | Pressure | Rain* | Wind** | Luminosity | Snow |
|---|---|---|---|---|---|---|---|
| 1788108277 | 23.33° C | 57% | 1014.9 hPa | - | - | - | - |
| 1788107377 | 23.89° C | 53% | 1015 hPa | - | - | - | - |
| 1788106478 | 23.89° C | 54% | 1014.9 hPa | - | - | - | - |
| 1788105578 | 23.89° C | 53% | 1014.8 hPa | - | - | - | - |
| 1788104678 | 24.44° C | 52% | 1014.9 hPa | - | - | - | - |
| 1788103778 | 23.89° C | 56% | 1014.9 hPa | - | - | - | - |
| 1788102878 | 25° C | 48% | 1015 hPa | - | - | - | - |
| 1788101978 | 24.44° C | 51% | 1015 hPa | - | - | - | - |
| 1788101078 | 25.56° C | 47% | 1015.1 hPa | - | - | - | - |
| 1788100178 | 25° C | 49% | 1015.1 hPa | - | - | - | - |
| 1788099278 | 23.89° C | 53% | 1015.2 hPa | - | - | - | - |
| 1788098378 | 25° C | 48% | 1015.3 hPa | - | - | - | - |
| 1788097477 | 24.44° C | 51% | 1015.4 hPa | - | - | - | - |
| 1788096577 | 23.89° C | 52% | 1015.5 hPa | - | - | - | - |
| 1788095677 | 24.44° C | 50% | 1015.9 hPa | - | - | - | - |
| 1788094777 | 23.89° C | 53% | 1015.8 hPa | - | - | - | - |
| 1788093877 | 23.33° C | 55% | 1015.9 hPa | - | - | - | - |
| 1788092977 | 23.89° C | 53% | 1016 hPa | - | - | - | - |
| 1788092077 | 23.33° C | 54% | 1016 hPa | - | - | - | - |
| 1788091177 | 22.78° C | 57% | 1016.2 hPa | - | - | - | - |
| 1788090276 | 23.33° C | 56% | 1016.2 hPa | - | - | - | - |
| 1788089376 | 22.78° C | 57% | 1016.2 hPa | - | - | - | - |
| 1788088476 | 22.78° C | 56% | 1016.4 hPa | - | - | - | - |
| 1788087576 | 22.78° C | 58% | 1016.6 hPa | - | - | - | - |
| 1788086676 | 22.22° C | 59% | 1016.6 hPa | - | - | - | - |
* Rain since midnight (hover to see other rain measurements)
** Current wind speed in m/s (hover to see current wind gust speed)